• Join FlightAware (Why Join?)
  • Login
  • US Flag 
12:13PM EDT


 

Airport Tracker/Info


-or-


 

Live Flight TrackerFlight Track Log ✈ SWA1969 ✈ 29-Apr-2013 ✈ KMDW - KPHX

Flight Track Log - Related Links

Times and Time Zones

All times are in EDT time to prevent confusion due to time zone crossing. See the SWA1969 flight status page for this flight to view local times or setup timezone preferences in your user account.

Time Position Orientation Groundspeed Altitude Reporting Facility
EDT Latitude Longitude Course Direction KTS MPH feet Rate Location/Type
01:23PM 41.7500 -87.8333 283° West 211 243 3,900  Level Chicago TRACON
01:24PM 41.7833 -87.9167 298° West 232 267 7,500 3,360 Climbing Chicago TRACON
01:25PM 41.7914 -87.9872 279° West 235 270 10,600 2,940 Climbing Chicago Center
01:26PM 41.7886 -88.0783 268° West 245 282 13,400 2,700 Climbing Chicago Center
01:27PM 41.7847 -88.2033 268° West 282 325 16,200 2,220 Climbing Chicago Center
01:28PM 41.9236 -88.6080 283° West  Level FlightAware Approximate
01:28PM 41.7803 -88.3317 267° West 345 397 18,000  Level Chicago Center
01:29PM 41.7764 -88.4625 268° West 356 410 21,200 2,760 Climbing Chicago Center
01:30PM 41.7722 -88.5944 268° West 358 412 23,800 2,340 Climbing Chicago Center
01:31PM 41.7683 -88.7300 268° West 366 421 26,100 1,620 Climbing Chicago Center
01:32PM 41.7619 -88.8961 267° West 375 432 27,200 1,080 Climbing Chicago Center
01:33PM 41.7406 -89.0428 259° West 409 471 28,400 1,260 Climbing Chicago Center
01:34PM 41.7003 -89.1894 250° West 422 486 29,900 1,740 Climbing Chicago Center
01:35PM 41.6619 -89.3353 251° West 419 482 32,000 1,920 Climbing Chicago Center
01:36PM 41.6253 -89.4781 251° West 409 471 33,900 1,860 Climbing Chicago Center
01:37PM 41.5844 -89.6336 251° West 403 464 35,900 1,740 Climbing Chicago Center
01:38PM 41.5483 -89.7678 250° West 390 449 37,500 960 Climbing Chicago Center
01:39PM 41.5117 -89.9022 250° West 386 444 38,000 240 Climbing Chicago Center
01:40PM 41.4683 -90.0636 250° West 387 445 38,000  Level Chicago Center
01:41PM 41.4319 -90.1994 250° West 389 448 38,000  Level Chicago Center
01:42PM 41.3947 -90.3344 250° West 391 450 38,000  Level Chicago Center
01:43PM 41.3581 -90.4686 250° West 389 448 38,000  Level Chicago Center
01:45PM 41.3208 -90.6022 250° West 388 447 38,000  Level Chicago Center
01:46PM 41.2825 -90.7406 250° West 397 457 38,000  Level Chicago Center
01:47PM 41.2369 -90.9017 249° West 392 451 38,000  Level Chicago Center
01:48PM 41.1986 -91.0356 249° West 390 449 38,000  Level Chicago Center
01:49PM 41.1606 -91.1711 250° West 393 452 38,000  Level Chicago Center
01:50PM 41.1219 -91.3053 249° West 391 450 38,000  Level Chicago Center
01:51PM 41.0833 -91.4392 249° West 390 449 38,000  Level Chicago Center
01:52PM 41.0453 -91.5719 249° West 388 447 38,000  Level Chicago Center
01:53PM 41.0058 -91.7117 250° West 386 444 38,000  Level Chicago Center
01:54PM 40.9597 -91.8686 249° West 385 443 38,000  Level Chicago Center
01:55PM 40.9208 -91.9994 249° West 386 444 38,000  Level Chicago Center
01:56PM 40.8825 -92.1317 249° West 388 447 38,000  Level Chicago Center
01:57PM 40.8433 -92.2633 249° West 390 449 38,000  Level Chicago Center
01:58PM 40.8047 -92.3944 249° West 389 448 38,000  Level Chicago Center
01:59PM 40.7575 -92.5528 249° West 391 450 38,000  Level Chicago Center
02:00PM 40.7172 -92.6872 248° West 397 457 38,000  Level Chicago Center
02:01PM 40.6775 -92.8211 249° West 399 459 38,000  Level Chicago Center
02:02PM 40.6361 -92.9542 248° West 399 459 38,000  Level Chicago Center
02:03PM 40.5803 -93.1394 248° West 395 455 38,000  Level Kansas City Center
02:04PM 40.5386 -93.2733 248° West 399 459 38,000  Level Kansas City Center
02:05PM 40.4972 -93.4056 248° West 398 458 38,000  Level Kansas City Center
02:06PM 40.4578 -93.5367 248° West 393 452 38,000  Level Kansas City Center
02:07PM 40.4072 -93.6944 247° West 393 452 38,000  Level Kansas City Center
02:08PM 40.3672 -93.8264 248° West 394 453 38,000  Level Kansas City Center
02:10PM 40.3258 -93.9592 248° West 396 456 38,000  Level Kansas City Center
02:11PM 40.2836 -94.0928 248° West 393 452 38,000  Level Kansas City Center
02:12PM 40.2364 -94.2419 248° West 395 455 38,000  Level Kansas City Center
02:13PM 40.1956 -94.3689 247° West 396 456 38,000  Level Kansas City Center
02:14PM 40.1478 -94.5156 247° West 395 455 38,000  Level Kansas City Center
02:15PM 40.1069 -94.6425 247° West 396 456 38,000  Level Kansas City Center
02:16PM 40.0594 -94.7919 247° West 399 459 38,000  Level Kansas City Center
02:17PM 40.0172 -94.9192 247° West 401 461 38,000  Level Kansas City Center
02:18PM 39.9689 -95.0686 247° West 400 460 38,000  Level Kansas City Center
02:19PM 39.9275 -95.1956 247° West 400 460 38,000  Level Kansas City Center
02:20PM 39.8781 -95.3453 247° West 404 465 38,000  Level Kansas City Center
02:21PM 39.8350 -95.4694 246° West 398 458 38,000  Level Kansas City Center
02:22PM 39.7875 -95.6172 247° West 398 458 38,000  Level Kansas City Center
02:23PM 39.7447 -95.7403 246° West 393 452 38,000  Level Kansas City Center
02:24PM 39.6950 -95.8864 246° West 398 458 38,000  Level Kansas City Center
02:25PM 39.6533 -96.0114 247° West 396 456 38,000  Level Kansas City Center
02:26PM 39.6022 -96.1594 246° West 401 461 38,000  Level Kansas City Center
02:27PM 39.5533 -96.2894 244° Southwest 403 464 38,000  Level Kansas City Center
02:28PM 39.5025 -96.4169 243° Southwest 401 461 38,000  Level Kansas City Center
02:29PM 39.4522 -96.5506 244° Southwest 402 463 38,000  Level Kansas City Center
02:30PM 39.4036 -96.6736 243° Southwest 402 463 38,000  Level Kansas City Center
02:31PM 39.3478 -96.8189 244° Southwest 405 466 38,000  Level Kansas City Center
02:32PM 39.2994 -96.9431 243° Southwest 405 466 38,000  Level Kansas City Center
02:33PM 39.2428 -97.0883 243° Southwest 406 467 38,000  Level Kansas City Center
02:34PM 39.1969 -97.2128 245° Southwest 404 465 38,000  Level Kansas City Center
02:35PM 39.1400 -97.3567 243° Southwest 404 465 38,000  Level Kansas City Center
02:36PM 39.0908 -97.4811 243° Southwest 407 468 38,000  Level Kansas City Center
02:37PM 39.0331 -97.6269 243° Southwest 411 473 38,000  Level Kansas City Center
02:38PM 38.9836 -97.7511 243° Southwest 411 473 38,000  Level Kansas City Center
02:39PM 38.9239 -97.8967 242° Southwest 417 480 38,000  Level Kansas City Center
02:41PM 38.8714 -98.0278 243° Southwest 415 478 38,000  Level Kansas City Center
02:42PM 38.8192 -98.1589 243° Southwest 414 476 38,000  Level Kansas City Center
02:43PM 38.7658 -98.2881 242° Southwest 413 475 38,000  Level Kansas City Center
02:44PM 38.7242 -98.4236 249° West 411 473 38,000 60 Level Kansas City Center
02:45PM 38.6853 -98.5589 250° West 409 471 38,200 480 Climbing Kansas City Center
02:46PM 38.6364 -98.7236 249° West 414 476 39,100 720 Climbing Kansas City Center
02:47PM 38.5961 -98.8642 250° West 420 483 39,700 420 Climbing Kansas City Center
02:48PM 38.5550 -99.0044 249° West 424 488 40,000 120 Climbing Kansas City Center
02:49PM 38.5131 -99.1464 249° West 426 490 40,000  Level Kansas City Center
02:50PM 38.4689 -99.2906 249° West 435 501 40,000  Level Kansas City Center
02:51PM 38.4264 -99.4342 249° West 435 501 40,000  Level Kansas City Center
02:52PM 38.3794 -99.5922 249° West 435 501 40,000  Level Kansas City Center
02:53PM 38.3303 -99.7533 249° West 436 502 40,000  Level Kansas City Center
02:54PM 38.2881 -99.8894 248° West 434 499 40,000  Level Kansas City Center
02:55PM 38.2403 -100.0483 249° West 432 497 40,000  Level Kansas City Center
02:56PM 38.1978 -100.1850 248° West 434 499 40,000  Level Kansas City Center
02:57PM 38.1494 -100.3422 249° West 431 496 40,000  Level Kansas City Center
02:58PM 38.1069 -100.4778 248° West 432 497 40,000  Level Kansas City Center
02:59PM 38.0575 -100.6353 248° West 432 497 40,000  Level Kansas City Center
03:00PM 38.0156 -100.7689 248° West 430 495 40,000  Level Kansas City Center
03:01PM 37.9661 -100.9233 248° West 428 493 40,000  Level Kansas City Center
03:02PM 37.9231 -101.0561 248° West 429 494 40,000  Level Kansas City Center
03:03PM 37.8739 -101.2122 248° West 431 496 40,000  Level Kansas City Center
03:04PM 37.8314 -101.3461 248° West 431 496 40,000  Level Kansas City Center
03:05PM 37.7806 -101.5019 248° West 431 496 40,000  Level Kansas City Center
03:06PM 37.7372 -101.6367 248° West 433 498 40,000  Level Kansas City Center
03:07PM 37.6853 -101.7933 247° West 434 499 40,000  Level Kansas City Center
03:08PM 37.6422 -101.9267 248° West 431 496 40,000  Level Kansas City Center
03:09PM 37.5914 -102.0803 247° West 427 491 40,000  Level Kansas City Center
03:10PM 37.5483 -102.2114 248° West 424 488 40,000  Level Kansas City Center
03:11PM 37.4983 -102.3619 247° West 419 482 40,000  Level Kansas City Center
03:13PM 37.4547 -102.4917 247° West 420 483 40,000  Level Kansas City Center
03:14PM 37.4114 -102.6222 247° West 421 484 40,000  Level Kansas City Center
03:15PM 37.3589 -102.7747 247° West 426 490 40,000  Level Kansas City Center
03:16PM 37.3147 -102.9089 248° West 431 496 40,000  Level Kansas City Center
03:17PM 37.2617 -103.0703 248° West 433 498 40,000  Level Albuquerque Center
03:18PM 37.2081 -103.2278 247° West 435 501 40,000  Level Albuquerque Center
03:19PM 37.1606 -103.3625 246° West 439 505 40,000  Level Albuquerque Center
03:20PM 37.1067 -103.5208 247° West 440 506 40,000  Level Albuquerque Center
03:21PM 37.0608 -103.6533 247° West 435 501 40,000  Level Albuquerque Center
03:22PM 37.0142 -103.7861 246° West 433 498 40,000  Level Albuquerque Center
03:23PM 36.9586 -103.9425 246° West 436 502 40,000  Level Albuquerque Center
03:24PM 36.9117 -104.0761 246° West 438 504 40,000  Level Albuquerque Center
03:25PM 36.8600 -104.2256 247° West 425 489 40,000  Level Albuquerque Center
03:26PM 36.8139 -104.3503 245° Southwest 415 478 40,000  Level Albuquerque Center
03:27PM 36.7675 -104.4792 246° West 420 483 40,000  Level Albuquerque Center
03:28PM 36.7133 -104.6311 246° West 427 491 40,000  Level Albuquerque Center
03:29PM 36.6636 -104.7675 246° West 427 491 40,000  Level Albuquerque Center
03:30PM 36.6147 -104.9036 246° West 428 493 40,000  Level Albuquerque Center
03:31PM 36.5658 -105.0383 246° West 427 491 40,000  Level Albuquerque Center
03:32PM 36.5172 -105.1708 245° Southwest 422 486 40,000  Level Albuquerque Center
03:33PM 36.4644 -105.3164 246° West 425 489 40,000  Level Albuquerque Center
03:34PM 36.4092 -105.4628 245° Southwest 427 491 40,000  Level Albuquerque Center
03:35PM 36.3644 -105.5842 245° Southwest 421 484 40,000  Level Albuquerque Center
03:36PM 36.3167 -105.7142 246° West 417 480 40,000  Level Albuquerque Center
03:37PM 36.2678 -105.8433 245° Southwest 414 476 40,000  Level Albuquerque Center
03:38PM 36.2217 -105.9750 247° West 417 480 40,000  Level Albuquerque Center
03:39PM 36.1622 -106.1297 245° Southwest 415 478 40,000  Level Albuquerque Center
03:40PM 36.1125 -106.2614 245° Southwest 421 484 40,000  Level Albuquerque Center
03:41PM 36.0625 -106.3928 245° Southwest 424 488 40,000  Level Albuquerque Center
03:42PM 36.0117 -106.5272 245° Southwest 429 494 40,000  Level Albuquerque Center
03:44PM 35.9617 -106.6603 245° Southwest 429 494 40,000  Level Albuquerque Center
03:45PM 35.9028 -106.8122 244° Southwest 432 497 40,000  Level Albuquerque Center
03:46PM 35.8533 -106.9394 244° Southwest 430 495 40,000  Level Albuquerque Center
03:47PM 35.7953 -107.0875 244° Southwest 429 494 40,000  Level Albuquerque Center
03:48PM 35.7458 -107.2172 245° Southwest 434 499 40,000  Level Albuquerque Center
03:49PM 35.6861 -107.3686 244° Southwest 437 503 40,000  Level Albuquerque Center
03:50PM 35.6347 -107.5006 244° Southwest 442 509 40,000  Level Albuquerque Center
03:51PM 35.5828 -107.6314 244° Southwest 444 511 40,000  Level Albuquerque Center
03:52PM 35.5239 -107.7839 245° Southwest 443 510 40,000  Level Albuquerque Center
03:53PM 35.4714 -107.9139 244° Southwest 442 509 40,000  Level Albuquerque Center
03:54PM 35.4100 -108.0653 244° Southwest 442 509 40,000  Level Albuquerque Center
03:55PM 35.3583 -108.1944 244° Southwest 441 507 40,000  Level Albuquerque Center
03:56PM 35.2981 -108.3456 244° Southwest 440 506 40,000  Level Albuquerque Center
03:57PM 35.2453 -108.4753 244° Southwest 441 507 40,000 -540 Level Albuquerque Center
03:58PM 35.1844 -108.6269 244° Southwest 444 511 39,000 -1,020 Descending Albuquerque Center
03:59PM 35.1308 -108.7564 243° Southwest 444 511 38,000 -960 Descending Albuquerque Center
04:00PM 35.0778 -108.8853 243° Southwest 443 510 37,100 -540 Descending Albuquerque Center
04:01PM 35.0167 -109.0350 244° Southwest 440 506 37,000 -60 Descending Albuquerque Center
04:02PM 34.9636 -109.1658 244° Southwest 445 512 37,000  Level Albuquerque Center
04:03PM 34.9081 -109.3172 246° West 440 506 37,000 -360 Level Albuquerque Center
04:04PM 34.8592 -109.4503 246° West 444 511 36,300 -540 Descending Albuquerque Center
04:05PM 34.8008 -109.6008 245° Southwest 441 507 36,000 -180 Descending Albuquerque Center
04:06PM 34.7531 -109.7339 246° West 446 513 36,000  Level Albuquerque Center
04:07PM 34.7039 -109.8683 246° West 449 517 36,000 -480 Level Albuquerque Center
04:08PM 34.6456 -110.0233 245° Southwest 451 519 35,100 -900 Descending Albuquerque Center
04:09PM 34.5994 -110.1633 248° West 464 534 34,200 -1,020 Descending Albuquerque Center
04:10PM 34.5414 -110.3181 246° West 456 525 33,000 -1,560 Descending Albuquerque Center
04:11PM 34.4853 -110.4561 244° Southwest 448 516 31,000 -2,100 Descending Albuquerque Center
04:12PM 34.4394 -110.5867 247° West 429 494 28,800 -2,100 Descending Albuquerque Center
04:13PM 34.3903 -110.7097 244° Southwest 413 475 26,700 -2,040 Descending Albuquerque Center
04:14PM 34.3361 -110.8264 241° Southwest 403 464 24,600 -2,040 Descending Albuquerque Center
04:16PM 34.2581 -110.9197 225° Southwest 390 449 22,500 -2,040 Descending Albuquerque Center
04:17PM 34.1869 -111.0139 228° Southwest 386 444 20,500 -2,100 Descending Albuquerque Center
04:18PM 34.1022 -111.1211 226° Southwest 372 428 18,200 -2,160 Descending Albuquerque Center
04:19PM 34.0347 -111.2086 227° Southwest 361 415 16,100 -1,980 Descending Albuquerque Center
04:20PM 33.9689 -111.2928 227° Southwest 350 403 14,200 -1,800 Descending Albuquerque Center
04:21PM 33.9044 -111.3756 227° Southwest 338 389 12,400 -1,500 Descending Albuquerque Center
04:22PM 33.8383 -111.4431 220° Southwest 314 361 11,200 -1,020 Descending Albuquerque Center
04:23PM 33.7711 -111.5000 215° Southwest 295 339 10,400 -1,020 Descending Albuquerque Center
04:24PM 33.7069 -111.5564 216° Southwest 285 328 9,100 -960 Descending Albuquerque Center
04:25PM 33.6447 -111.6083 215° Southwest 273 314 8,500 -1,020 Descending Albuquerque Center
04:26PM 33.5739 -111.6678 215° Southwest 259 298 7,100 -1,320 Descending Albuquerque Center
04:27PM 33.5158 -111.7172 215° Southwest 256 295 5,900 -1,200 Descending Albuquerque Center
04:28PM 33.4831 -111.7875 241° Southwest 244 281 4,700 -1,200 Descending Albuquerque Center
04:29PM 33.4533 -111.8531 241° Southwest 225 259 3,500 -1,200 Descending Albuquerque Center
04:30PM 33.4411 -111.9144 257° West 197 227 2,300 -960 Descending Albuquerque Center
04:31PM 33.4411 -111.9669 270° West 160 184 1,600 -540 Descending Albuquerque Center
04:32PM 33.4386 -112.0133 266° West 143 165 1,200 -420 Descending Albuquerque Center
04:34PM 33.4343 -112.0116 North  Level Estimated